Terminal Aerodrome Forecast
Issued by NWS

Home | Current Version | Previous Version | Text Only | Print | Product List | Glossary Off
Versions: 1 2 3 4 5 6 7 8 9 10 11 12 13 14 15

436
FTUS43 KMPX 171720
TAFAXN
TAF
KAXN 171720Z 1718/1818 09010KT P6SM SCT050
     FM172300 09008KT P6SM BKN090
     FM180700 07007KT P6SM BKN030
     FM180900 04006KT P6SM BKN015
     FM181200 04006KT P6SM OVC015=

USA.gov is the U.S. government's official web portal to all federal, state and local government web resources and services.